createdAt,value
2022-08-16T00:01:24.772Z,22.42
2022-08-16T00:03:56.114Z,22.41
2022-08-16T00:06:24.964Z,22.41
2022-08-16T00:08:53.252Z,22.35
2022-08-16T00:11:22.848Z,22.38
2022-08-16T00:13:54.764Z,22.41
2022-08-16T00:17:05.988Z,22.35
2022-08-16T00:19:15.952Z,22.37
2022-08-16T00:21:44.992Z,22.37
2022-08-16T00:24:14.070Z,22.37
2022-08-16T00:27:01.698Z,22.42
2022-08-16T00:29:30.182Z,22.37
2022-08-16T00:32:05.983Z,22.38
2022-08-16T00:34:45.131Z,22.34
2022-08-16T00:37:24.409Z,22.30
2022-08-16T00:39:57.760Z,22.30
2022-08-16T00:42:29.614Z,22.27
2022-08-16T00:45:08.453Z,22.27
2022-08-16T00:47:42.527Z,22.27
2022-08-16T00:50:20.819Z,22.28
2022-08-16T00:52:51.248Z,22.25
2022-08-16T00:55:23.107Z,22.25
2022-08-16T00:57:59.522Z,22.29
2022-08-16T01:00:32.347Z,22.28
2022-08-16T01:03:04.113Z,22.29
2022-08-16T01:05:34.150Z,22.31
2022-08-16T01:08:34.858Z,22.32
2022-08-16T01:10:53.150Z,22.31
2022-08-16T01:13:26.654Z,22.39
2022-08-16T01:16:02.944Z,22.31
2022-08-16T01:18:40.029Z,22.38
2022-08-16T01:21:33.467Z,22.32
2022-08-16T01:24:52.726Z,22.32
2022-08-16T01:27:06.824Z,22.42
2022-08-16T01:29:58.368Z,22.40
2022-08-16T01:32:33.457Z,22.38
2022-08-16T01:35:04.196Z,22.40
2022-08-16T01:37:42.296Z,22.34
2022-08-16T01:40:15.425Z,22.31
2022-08-16T01:42:48.134Z,22.24
2022-08-16T01:45:19.939Z,22.37
2022-08-16T01:47:50.996Z,22.31
2022-08-16T01:50:41.732Z,22.29
2022-08-16T01:53:12.042Z,22.28
2022-08-16T01:55:46.107Z,22.35
2022-08-16T01:58:24.192Z,22.32
2022-08-16T02:00:52.352Z,22.29
2022-08-16T02:03:24.326Z,22.25
2022-08-16T02:05:55.043Z,22.24
2022-08-16T02:08:33.631Z,22.23
2022-08-16T02:11:05.692Z,22.19
2022-08-16T02:13:34.028Z,22.14
2022-08-16T02:16:03.229Z,22.15
2022-08-16T02:18:32.156Z,22.19
2022-08-16T02:21:03.424Z,22.27
2022-08-16T02:23:33.868Z,22.21
2022-08-16T02:26:03.555Z,22.26
2022-08-16T02:28:32.184Z,22.14
2022-08-16T02:31:07.716Z,22.12
2022-08-16T02:33:44.625Z,22.12
2022-08-16T02:36:47.624Z,22.17
2022-08-16T02:39:10.588Z,22.22
2022-08-16T02:41:44.139Z,22.21
2022-08-16T02:44:14.036Z,22.17
2022-08-16T02:46:50.388Z,22.17
2022-08-16T02:49:21.940Z,22.18
2022-08-16T02:52:00.769Z,22.14
2022-08-16T02:54:29.377Z,22.12
2022-08-16T02:56:58.983Z,22.15
2022-08-16T02:59:28.673Z,22.15
2022-08-16T03:02:10.405Z,22.11
2022-08-16T03:04:51.927Z,22.10
2022-08-16T03:07:27.582Z,22.10
2022-08-16T03:10:00.561Z,22.10
2022-08-16T03:12:36.744Z,22.05
2022-08-16T03:15:07.285Z,22.05
2022-08-16T03:17:36.914Z,22.05
2022-08-16T03:20:32.215Z,21.97
2022-08-16T03:23:01.934Z,21.98
2022-08-16T03:25:41.137Z,21.96
2022-08-16T03:28:17.225Z,21.86
2022-08-16T03:30:47.565Z,21.87
2022-08-16T03:33:16.464Z,21.82
2022-08-16T03:35:45.292Z,21.81
2022-08-16T03:38:34.201Z,21.76
2022-08-16T03:41:05.601Z,21.71
2022-08-16T03:43:54.937Z,21.76
2022-08-16T03:46:48.347Z,21.75
2022-08-16T03:49:14.059Z,21.76
2022-08-16T03:51:47.207Z,21.80
2022-08-16T03:54:16.040Z,21.85
2022-08-16T03:56:56.927Z,21.91
2022-08-16T03:59:29.271Z,21.83
2022-08-16T04:01:58.805Z,21.85
2022-08-16T04:04:33.322Z,21.83
2022-08-16T04:07:04.278Z,21.95
2022-08-16T04:09:37.905Z,21.99
2022-08-16T04:12:10.836Z,21.93
2022-08-16T04:14:46.908Z,21.87
2022-08-16T04:17:17.078Z,21.91
2022-08-16T04:19:46.595Z,21.91
2022-08-16T04:22:17.359Z,21.98
2022-08-16T04:24:54.283Z,21.93
2022-08-16T04:27:24.410Z,21.92
2022-08-16T04:29:54.807Z,21.92
2022-08-16T04:32:31.648Z,21.96
2022-08-16T04:35:03.419Z,21.93
2022-08-16T04:37:42.012Z,22.00
2022-08-16T04:40:21.905Z,21.95
2022-08-16T04:42:53.557Z,21.97
2022-08-16T04:45:35.656Z,22.04
2022-08-16T04:48:05.009Z,22.06
2022-08-16T04:50:34.224Z,22.01
2022-08-16T04:53:02.429Z,22.02
2022-08-16T04:55:37.736Z,22.09
2022-08-16T04:58:45.128Z,22.04
2022-08-16T05:00:58.782Z,22.17
2022-08-16T05:03:27.271Z,22.20
2022-08-16T05:06:04.829Z,22.17
2022-08-16T05:08:34.493Z,22.20
2022-08-16T05:11:08.378Z,22.21
2022-08-16T05:13:40.334Z,22.26
2022-08-16T05:16:20.195Z,22.22
2022-08-16T05:18:51.801Z,22.33
2022-08-16T05:21:21.450Z,22.33
2022-08-16T05:23:55.963Z,22.34
2022-08-16T05:26:28.401Z,22.36
2022-08-16T05:28:58.094Z,22.33
2022-08-16T05:31:30.372Z,22.29
2022-08-16T05:34:00.574Z,22.28
2022-08-16T05:36:34.017Z,22.31
2022-08-16T05:39:07.802Z,22.30
2022-08-16T05:41:45.075Z,22.31
2022-08-16T05:44:24.028Z,22.33
2022-08-16T05:46:56.369Z,22.36
2022-08-16T05:49:39.188Z,22.34
2022-08-16T05:52:20.812Z,22.36
2022-08-16T05:54:58.465Z,22.41
2022-08-16T05:57:35.574Z,22.31
2022-08-16T06:00:09.185Z,22.36
2022-08-16T06:02:44.083Z,22.33
2022-08-16T06:05:12.827Z,22.42
2022-08-16T06:07:58.410Z,22.46
2022-08-16T06:10:31.946Z,22.34
2022-08-16T06:13:01.618Z,22.60
2022-08-16T06:15:32.262Z,22.62
2022-08-16T06:18:02.526Z,22.68
2022-08-16T06:20:36.032Z,22.68
2022-08-16T06:23:11.836Z,22.81
2022-08-16T06:25:53.035Z,22.88
2022-08-16T06:28:35.615Z,22.88
2022-08-16T06:31:05.117Z,22.90
2022-08-16T06:33:41.519Z,22.83
2022-08-16T06:36:11.833Z,22.99
2022-08-16T06:38:55.296Z,23.04
2022-08-16T06:41:27.344Z,23.09
2022-08-16T06:43:57.034Z,23.13
2022-08-16T06:46:32.035Z,23.17
2022-08-16T06:49:02.354Z,23.20
2022-08-16T06:51:48.023Z,23.24
2022-08-16T06:54:19.065Z,23.22
2022-08-16T06:56:47.589Z,23.25
2022-08-16T06:59:21.030Z,23.18
2022-08-16T07:01:55.443Z,23.21
2022-08-16T07:04:32.355Z,23.22
2022-08-16T07:07:05.933Z,23.25
2022-08-16T07:09:34.233Z,23.36
2022-08-16T07:12:03.544Z,23.43
2022-08-16T07:14:32.851Z,23.49
2022-08-16T07:17:01.428Z,23.50
2022-08-16T07:20:03.260Z,23.58
2022-08-16T07:22:38.386Z,23.71
2022-08-16T07:25:09.935Z,23.76
2022-08-16T07:27:38.482Z,23.91
2022-08-16T07:30:39.373Z,23.94
2022-08-16T07:32:58.343Z,23.97
2022-08-16T07:35:28.082Z,24.03
2022-08-16T07:37:56.162Z,24.07
2022-08-16T07:40:56.398Z,24.14
2022-08-16T07:43:14.866Z,24.15
2022-08-16T07:45:48.252Z,24.23
2022-08-16T07:48:21.773Z,24.23
2022-08-16T07:50:57.851Z,24.24
2022-08-16T07:53:43.775Z,24.33
2022-08-16T07:56:12.607Z,24.42
2022-08-16T07:58:43.350Z,24.48
2022-08-16T08:01:13.105Z,24.54
2022-08-16T08:03:49.170Z,24.63
2022-08-16T08:06:20.574Z,24.68
2022-08-16T08:08:52.386Z,24.69
2022-08-16T08:11:23.598Z,24.74
2022-08-16T08:13:53.924Z,24.78
2022-08-16T08:16:30.434Z,24.60
2022-08-16T08:19:02.751Z,24.68
2022-08-16T08:21:59.118Z,24.72
2022-08-16T08:24:32.169Z,25.12
2022-08-16T08:27:02.453Z,25.51
2022-08-16T08:29:36.845Z,25.73
2022-08-16T08:32:57.400Z,26.02
2022-08-16T08:35:03.026Z,26.43
2022-08-16T08:37:55.421Z,26.53
2022-08-16T08:40:26.712Z,26.62
2022-08-16T08:42:57.854Z,26.76
2022-08-16T08:45:47.995Z,26.87
2022-08-16T08:48:34.341Z,26.90
2022-08-16T08:51:04.650Z,27.06
2022-08-16T08:53:36.293Z,27.18
2022-08-16T08:56:23.496Z,27.16
2022-08-16T08:58:54.013Z,27.26
2022-08-16T09:01:31.977Z,27.37
2022-08-16T09:04:06.547Z,27.38
2022-08-16T09:06:35.632Z,27.28
2022-08-16T09:09:16.544Z,27.32
2022-08-16T09:12:04.164Z,27.45
2022-08-16T09:14:36.293Z,27.59
2022-08-16T09:17:11.939Z,27.62
2022-08-16T09:19:55.149Z,27.64
2022-08-16T09:22:25.290Z,27.67
2022-08-16T09:25:09.653Z,27.81
2022-08-16T09:27:56.516Z,27.73
2022-08-16T09:30:33.409Z,27.88
2022-08-16T09:33:07.545Z,27.94
2022-08-16T09:35:39.057Z,27.93
2022-08-16T09:38:08.612Z,27.99
2022-08-16T09:40:42.564Z,28.07
2022-08-16T09:43:37.803Z,28.16
2022-08-16T09:46:01.130Z,28.16
2022-08-16T09:48:44.294Z,28.18
2022-08-16T09:51:19.501Z,28.29
2022-08-16T09:53:53.739Z,28.39
2022-08-16T09:56:28.638Z,28.39
2022-08-16T09:59:03.746Z,28.37
2022-08-16T10:01:36.631Z,28.25
2022-08-16T10:04:29.735Z,28.28
2022-08-16T10:06:55.558Z,28.33
2022-08-16T10:09:54.405Z,28.25
2022-08-16T10:12:42.702Z,27.97
2022-08-16T10:15:16.187Z,27.91
2022-08-16T10:18:00.620Z,27.85
2022-08-16T10:20:32.658Z,27.80
2022-08-16T10:23:07.300Z,27.66
2022-08-16T10:27:20.111Z,27.58
2022-08-16T10:28:32.585Z,27.46
2022-08-16T10:31:12.047Z,27.48
2022-08-16T10:33:46.278Z,27.43
2022-08-16T10:36:39.028Z,27.30
2022-08-16T10:39:04.347Z,27.10
2022-08-16T10:41:33.116Z,27.08
2022-08-16T10:44:03.092Z,27.04
2022-08-16T10:46:33.815Z,27.07
2022-08-16T10:49:10.250Z,26.97
2022-08-16T10:52:03.088Z,26.99
2022-08-16T10:54:29.599Z,27.01
2022-08-16T10:56:59.297Z,27.07
2022-08-16T10:59:32.809Z,27.05
2022-08-16T11:02:58.530Z,27.02
2022-08-16T11:05:11.624Z,27.20
2022-08-16T11:07:43.658Z,27.30
2022-08-16T11:16:00.372Z,27.20
2022-08-16T11:19:03.130Z,27.15
2022-08-16T11:21:29.445Z,27.12
2022-08-16T11:24:42.572Z,26.89
2022-08-16T11:27:20.431Z,26.83
2022-08-16T11:29:55.142Z,26.76
2022-08-16T11:32:31.181Z,26.85
2022-08-16T11:35:10.839Z,26.72
2022-08-16T11:40:40.632Z,26.57
2022-08-16T11:43:16.586Z,26.53
2022-08-16T11:45:54.108Z,26.45
2022-08-16T11:48:29.479Z,26.45
2022-08-16T11:50:59.089Z,26.60
2022-08-16T11:53:29.129Z,26.75
2022-08-16T11:56:04.837Z,27.05
2022-08-16T11:58:35.346Z,26.98
2022-08-16T12:01:03.528Z,26.92
2022-08-16T12:03:34.784Z,26.79
2022-08-16T12:06:11.265Z,26.58
2022-08-16T12:09:02.170Z,26.58
2022-08-16T12:11:33.310Z,26.58
2022-08-16T12:14:01.791Z,26.85
2022-08-16T12:16:34.093Z,26.96
2022-08-16T12:19:05.113Z,26.96
2022-08-16T12:21:35.895Z,26.99
2022-08-16T12:24:23.887Z,27.27
2022-08-16T12:26:52.360Z,27.29
2022-08-16T12:29:21.205Z,27.37
2022-08-16T12:32:00.505Z,27.54
2022-08-16T12:34:47.938Z,27.53
2022-08-16T12:37:19.568Z,27.50
2022-08-16T12:39:51.304Z,27.50
2022-08-16T12:42:24.442Z,27.47
2022-08-16T12:45:03.431Z,27.35
2022-08-16T12:47:49.348Z,27.41
2022-08-16T12:50:19.309Z,27.37
2022-08-16T12:52:52.949Z,27.33
2022-08-16T12:55:24.051Z,27.49
2022-08-16T12:58:02.643Z,27.38
2022-08-16T13:00:46.533Z,27.55
2022-08-16T13:03:26.670Z,27.67
2022-08-16T13:05:58.222Z,27.45
2022-08-16T13:08:27.538Z,27.41
2022-08-16T13:11:00.299Z,27.39
2022-08-16T13:13:33.086Z,27.11
2022-08-16T13:16:15.510Z,26.90
2022-08-16T13:18:52.337Z,27.17
2022-08-16T13:21:27.524Z,27.27
2022-08-16T13:23:55.987Z,27.40
2022-08-16T13:26:26.402Z,27.45
2022-08-16T13:28:55.005Z,27.36
2022-08-16T13:31:23.867Z,27.21
2022-08-16T13:33:54.529Z,27.05
2022-08-16T13:39:17.384Z,27.17
2022-08-16T13:41:54.200Z,26.89
2022-08-16T13:44:36.036Z,26.80
2022-08-16T13:47:11.673Z,26.73
2022-08-16T13:49:43.326Z,26.43
2022-08-16T13:52:14.039Z,26.22
2022-08-16T13:54:42.673Z,26.36
2022-08-16T13:57:11.573Z,26.27
2022-08-16T13:59:41.455Z,26.40
2022-08-16T14:02:11.439Z,26.48
2022-08-16T14:04:41.650Z,26.65
2022-08-16T14:07:19.922Z,26.68
2022-08-16T14:09:55.261Z,26.82
2022-08-16T14:12:26.959Z,26.66
2022-08-16T14:14:57.460Z,26.74
2022-08-16T14:17:26.977Z,26.71
2022-08-16T14:19:59.917Z,26.63
2022-08-16T14:22:35.675Z,26.64
2022-08-16T14:25:11.164Z,26.58
2022-08-16T14:27:45.047Z,26.55
2022-08-16T14:30:16.623Z,26.67
2022-08-16T14:32:46.844Z,26.64
2022-08-16T14:35:36.601Z,26.50
2022-08-16T14:38:13.535Z,26.59
2022-08-16T14:40:52.819Z,26.53
2022-08-16T14:43:23.876Z,26.68
2022-08-16T14:45:55.898Z,26.55
2022-08-16T14:48:26.271Z,26.47
2022-08-16T14:50:55.393Z,26.64
2022-08-16T14:53:26.608Z,26.49
2022-08-16T14:55:54.842Z,26.47
2022-08-16T14:58:35.146Z,26.49
2022-08-16T15:01:10.237Z,26.44
2022-08-16T15:03:38.804Z,26.34
2022-08-16T15:06:16.282Z,26.39
2022-08-16T15:08:48.522Z,26.33
2022-08-16T15:11:19.291Z,26.51
2022-08-16T15:13:49.730Z,26.55
2022-08-16T15:16:20.072Z,26.44
2022-08-16T15:18:49.085Z,26.43
2022-08-16T15:21:18.288Z,26.30
2022-08-16T15:23:48.508Z,26.25
2022-08-16T15:26:18.810Z,26.22
2022-08-16T15:29:06.304Z,26.15
2022-08-16T15:31:36.570Z,26.04
2022-08-16T15:34:05.347Z,26.09
2022-08-16T15:36:34.293Z,26.00
2022-08-16T15:39:30.223Z,25.89
2022-08-16T15:42:07.335Z,25.93
2022-08-16T15:44:52.032Z,25.94
2022-08-16T15:47:26.426Z,25.85
2022-08-16T15:49:56.133Z,25.91
2022-08-16T15:52:29.708Z,25.99
2022-08-16T15:55:12.754Z,25.71
2022-08-16T15:57:45.134Z,25.69
2022-08-16T16:00:15.775Z,25.87
2022-08-16T16:02:45.346Z,25.70
2022-08-16T16:05:14.549Z,25.68
2022-08-16T16:07:56.586Z,25.75
2022-08-16T16:10:37.576Z,25.52
2022-08-16T16:13:09.432Z,25.29
2022-08-16T16:15:40.620Z,25.36
2022-08-16T16:18:12.027Z,25.32
2022-08-16T16:20:43.906Z,25.44
2022-08-16T16:23:12.461Z,25.36
2022-08-16T16:25:44.710Z,25.33
2022-08-16T16:29:05.958Z,25.25
2022-08-16T16:31:06.005Z,25.28
2022-08-16T16:33:37.153Z,25.28
2022-08-16T16:36:07.219Z,25.14
2022-08-16T16:38:36.270Z,25.02
2022-08-16T16:41:11.912Z,25.13
2022-08-16T16:43:42.656Z,24.99
2022-08-16T16:46:39.044Z,24.92
2022-08-16T16:49:08.681Z,24.95
2022-08-16T16:51:41.253Z,24.86
2022-08-16T16:54:22.473Z,24.87
2022-08-16T16:56:58.984Z,24.94
2022-08-16T16:59:28.387Z,24.89
2022-08-16T17:02:01.542Z,24.76
2022-08-16T17:04:47.213Z,24.79
2022-08-16T17:07:23.870Z,24.68
2022-08-16T17:09:52.967Z,24.71
2022-08-16T17:12:25.137Z,24.62
2022-08-16T17:14:54.045Z,24.65
2022-08-16T17:17:22.746Z,24.61
2022-08-16T17:19:51.388Z,24.54
2022-08-16T17:22:22.201Z,24.46
2022-08-16T17:24:53.339Z,24.43
2022-08-16T17:27:32.812Z,24.34
2022-08-16T17:30:03.214Z,24.31
2022-08-16T17:32:48.193Z,24.25
2022-08-16T17:35:20.665Z,24.29
2022-08-16T17:37:52.165Z,24.16
2022-08-16T17:40:40.574Z,24.10
2022-08-16T17:43:14.971Z,24.09
2022-08-16T17:45:45.073Z,24.05
2022-08-16T17:48:13.761Z,24.16
2022-08-16T17:50:43.605Z,24.04
2022-08-16T17:53:12.879Z,24.07
2022-08-16T17:55:47.489Z,24.05
2022-08-16T17:58:22.734Z,24.06
2022-08-16T18:00:53.458Z,24.11
2022-08-16T18:04:02.334Z,23.93
2022-08-16T18:06:17.017Z,23.86
2022-08-16T18:08:48.919Z,23.78
2022-08-16T18:11:26.127Z,23.89
2022-08-16T18:13:56.729Z,23.76
2022-08-16T18:16:25.731Z,23.59
2022-08-16T18:18:54.106Z,23.71
2022-08-16T18:21:40.923Z,23.76
2022-08-16T18:24:10.315Z,23.74
2022-08-16T18:26:39.045Z,23.63
2022-08-16T18:29:09.119Z,23.60
2022-08-16T18:31:37.525Z,23.63
2022-08-16T18:34:07.229Z,23.55
2022-08-16T18:36:37.326Z,23.51
2022-08-16T18:39:05.875Z,23.52
2022-08-16T18:41:37.179Z,23.37
2022-08-16T18:44:25.358Z,23.38
2022-08-16T18:46:57.708Z,23.32
2022-08-16T18:49:26.106Z,23.33
2022-08-16T18:51:58.285Z,23.28
2022-08-16T18:54:28.707Z,23.33
2022-08-16T18:56:58.268Z,23.24
2022-08-16T18:59:28.765Z,23.26
2022-08-16T19:02:04.197Z,23.40
2022-08-16T19:04:54.879Z,23.35
2022-08-16T19:07:29.633Z,23.22
2022-08-16T19:09:59.072Z,23.17
2022-08-16T19:12:38.020Z,23.28
2022-08-16T19:15:19.121Z,23.14
2022-08-16T19:17:49.329Z,23.12
2022-08-16T19:20:20.665Z,23.12
2022-08-16T19:23:04.437Z,23.09
2022-08-16T19:25:47.926Z,23.07
2022-08-16T19:28:49.812Z,23.12
2022-08-16T19:31:11.120Z,23.03
2022-08-16T19:33:42.232Z,23.05
2022-08-16T19:36:31.956Z,23.10
2022-08-16T19:39:04.581Z,23.01
2022-08-16T19:41:35.698Z,22.99
2022-08-16T19:44:05.181Z,22.95
2022-08-16T19:46:33.615Z,22.91
2022-08-16T19:49:03.421Z,22.87
2022-08-16T19:51:31.752Z,22.88
2022-08-16T19:54:00.445Z,22.94
2022-08-16T19:56:28.797Z,22.98
2022-08-16T19:59:18.037Z,22.89
2022-08-16T20:01:46.653Z,22.85
2022-08-16T20:04:16.745Z,22.79
2022-08-16T20:06:44.921Z,22.89
2022-08-16T20:09:16.399Z,22.80
2022-08-16T20:11:45.883Z,22.71
2022-08-16T20:14:19.247Z,22.81
2022-08-16T20:16:55.829Z,22.81
2022-08-16T20:19:35.186Z,22.72
2022-08-16T20:22:51.853Z,22.86
2022-08-16T20:25:18.120Z,22.87
2022-08-16T20:27:47.245Z,22.83
2022-08-16T20:30:17.934Z,22.85
2022-08-16T20:32:48.485Z,22.80
2022-08-16T20:35:21.572Z,22.73
2022-08-16T20:37:50.161Z,22.75
2022-08-16T20:40:34.300Z,22.68
2022-08-16T20:43:06.679Z,22.68
2022-08-16T20:45:35.458Z,22.60
2022-08-16T20:48:04.006Z,22.69
2022-08-16T20:50:34.294Z,22.63
2022-08-16T20:53:03.224Z,22.65
2022-08-16T20:55:32.447Z,22.65
2022-08-16T20:58:00.944Z,22.60
2022-08-16T21:00:29.408Z,22.70
2022-08-16T21:02:57.987Z,22.70
2022-08-16T21:05:31.268Z,22.61
2022-08-16T21:08:50.346Z,22.47
2022-08-16T21:10:52.061Z,22.41
2022-08-16T21:13:21.950Z,22.49
2022-08-16T21:15:51.867Z,22.56
2022-08-16T21:18:20.238Z,22.42
2022-08-16T21:20:48.617Z,22.42
2022-08-16T21:23:19.157Z,22.43
2022-08-16T21:25:58.944Z,22.42
2022-08-16T21:28:41.237Z,22.24
2022-08-16T21:31:11.158Z,22.47
2022-08-16T21:33:39.518Z,22.56
2022-08-16T21:36:09.484Z,22.46
2022-08-16T21:38:40.830Z,22.38
2022-08-16T21:41:11.516Z,22.38
2022-08-16T21:43:41.381Z,22.40
2022-08-16T21:46:10.811Z,22.32
2022-08-16T21:48:40.555Z,22.41
2022-08-16T21:51:14.874Z,22.28
2022-08-16T21:53:50.121Z,22.19
2022-08-16T21:56:19.192Z,22.26
2022-08-16T21:58:53.311Z,22.09
2022-08-16T22:01:23.597Z,22.25
2022-08-16T22:04:35.736Z,22.17
2022-08-16T22:06:42.894Z,22.24
2022-08-16T22:09:16.501Z,22.12
2022-08-16T22:11:47.210Z,22.08
2022-08-16T22:14:16.101Z,22.16
2022-08-16T22:16:47.355Z,22.09
2022-08-16T22:19:16.323Z,22.13
2022-08-16T22:21:47.515Z,22.13
2022-08-16T22:24:19.059Z,22.12
2022-08-16T22:26:47.941Z,22.11
2022-08-16T22:29:19.875Z,21.74
2022-08-16T22:31:48.966Z,21.96
2022-08-16T22:34:18.387Z,21.71
2022-08-16T22:36:48.240Z,22.06
2022-08-16T22:39:19.221Z,21.96
2022-08-16T22:41:50.374Z,21.93
2022-08-16T22:44:19.741Z,21.93
2022-08-16T22:46:49.033Z,21.92
2022-08-16T22:49:18.059Z,21.86
2022-08-16T22:51:49.320Z,21.92
2022-08-16T22:54:44.225Z,21.92
2022-08-16T22:57:09.954Z,21.91
2022-08-16T22:59:38.575Z,21.73
2022-08-16T23:02:10.401Z,21.86
2022-08-16T23:04:39.485Z,21.86
2022-08-16T23:07:08.221Z,21.92
2022-08-16T23:09:38.266Z,21.87
2022-08-16T23:12:07.690Z,21.95
2022-08-16T23:14:37.245Z,21.88
2022-08-16T23:17:05.394Z,21.83
2022-08-16T23:19:34.262Z,21.86
2022-08-16T23:22:02.432Z,21.83
2022-08-16T23:24:37.092Z,21.78
2022-08-16T23:27:18.782Z,21.75
2022-08-16T23:29:47.416Z,21.78
2022-08-16T23:32:19.134Z,21.80
2022-08-16T23:34:47.328Z,21.78
2022-08-16T23:37:20.029Z,21.75
2022-08-16T23:39:48.685Z,21.81
2022-08-16T23:42:52.560Z,21.67
2022-08-16T23:45:12.648Z,21.65
2022-08-16T23:47:41.082Z,21.68
2022-08-16T23:50:10.406Z,21.67
2022-08-16T23:52:54.590Z,21.66
2022-08-16T23:55:24.309Z,21.59
2022-08-16T23:57:54.379Z,21.50
